CGTJL OSDI-EYVI
Flight info
| Callsign | CGTJL |
|---|---|
| Flight time | 4h 15m |
| Altitude | 40000 |
| Route | LEBOR UR655 BALMA M601 EVENO UM601 RDS UL609 MES/N0436F320 UL608 GIKAS/N0431F400 UN133 ATFIR N133 LOMOS DCT BADOR/N0428F430 DCT KENIN/N0425F410 DCT ETUBO/N0429F430 DCT OFEDE DCT LIZUP DCT DIMTA |
| Aircraft | LJ35/M-SGHRWXY/SB1 |
Departure
| Time | 2026-05-04 13:50 |
|---|---|
| Airport | Damascus International Airport (OSDI) |
Arrival
| Time | 2026-05-04 18:05 |
|---|---|
| Airport | Vilnius International Airport (EYVI) |
| Time | Latitude | Longitude | Altitude | Speed | Heading |
|---|---|---|---|---|---|
| 2026-05-04 13:41 | 33.41068 | 36.51969 | 2005 ft | 0 kts | 50° |
| 2026-05-04 13:48 | 33.41045 | 36.51981 | 2004 ft | 9 kts | 167° |
| 2026-05-04 13:48 | 33.40971 | 36.51996 | 2003 ft | 11 kts | 168° |
| 2026-05-04 13:48 | 33.40877 | 36.52036 | 2005 ft | 17 kts | 153° |
| 2026-05-04 13:48 | 33.40780 | 36.52121 | 2006 ft | 15 kts | 124° |
| 2026-05-04 13:49 | 33.40813 | 36.52234 | 2005 ft | 17 kts | 51° |
| 2026-05-04 13:49 | 33.40813 | 36.52331 | 2005 ft | 12 kts | 144° |
| 2026-05-04 13:49 | 33.40732 | 36.52409 | 2005 ft | 18 kts | 140° |
| 2026-05-04 13:49 | 33.40625 | 36.52454 | 2004 ft | 11 kts | 183° |
| 2026-05-04 13:50 | 33.40545 | 36.52358 | 2004 ft | 46 kts | 228° |
| 2026-05-04 13:50 | 33.40109 | 36.51773 | 2010 ft | 139 kts | 228° |
| 2026-05-04 13:50 | 33.39326 | 36.50780 | 2626 ft | 185 kts | 226° |
| 2026-05-04 13:50 | 33.38376 | 36.49523 | 3536 ft | 221 kts | 234° |
| 2026-05-04 13:51 | 33.37784 | 36.47824 | 4979 ft | 225 kts | 264° |
| 2026-05-04 13:51 | 33.38115 | 36.45990 | 6649 ft | 234 kts | 292° |
| 2026-05-04 13:51 | 33.39281 | 36.44547 | 8202 ft | 255 kts | 321° |
| 2026-05-04 13:51 | 33.41039 | 36.43885 | 9709 ft | 280 kts | 348° |
| 2026-05-04 13:52 | 33.44950 | 36.45340 | 12542 ft | 310 kts | 21° |
| 2026-05-04 13:52 | 33.46915 | 36.46449 | 13903 ft | 314 kts | 15° |
| 2026-05-04 13:52 | 33.48976 | 36.47213 | 15087 ft | 315 kts | 4° |
| 2026-05-04 13:53 | 33.51177 | 36.47640 | 16286 ft | 319 kts | 360° |
| 2026-05-04 13:53 | 33.53404 | 36.48026 | 17458 ft | 328 kts | 2° |
| 2026-05-04 13:53 | 33.55679 | 36.48581 | 18571 ft | 338 kts | 5° |
| 2026-05-04 13:54 | 33.60378 | 36.49785 | 20470 ft | 352 kts | 1° |
| 2026-05-04 13:54 | 33.62771 | 36.50217 | 21377 ft | 355 kts | 355° |
| 2026-05-04 13:54 | 33.67783 | 36.50826 | 23222 ft | 369 kts | 354° |
| 2026-05-04 13:55 | 33.70359 | 36.51178 | 24031 ft | 376 kts | 354° |
| 2026-05-04 13:55 | 33.75610 | 36.51881 | 25585 ft | 384 kts | 353° |
| 2026-05-04 13:55 | 33.78281 | 36.52227 | 26326 ft | 388 kts | 353° |
| 2026-05-04 13:56 | 33.80984 | 36.52584 | 27036 ft | 393 kts | 353° |
| 2026-05-04 13:56 | 33.83723 | 36.52949 | 27743 ft | 398 kts | 353° |
| 2026-05-04 13:56 | 33.89282 | 36.53662 | 29078 ft | 406 kts | 353° |
| 2026-05-04 13:57 | 33.92110 | 36.53998 | 29722 ft | 411 kts | 353° |
| 2026-05-04 13:57 | 33.94974 | 36.54352 | 30286 ft | 416 kts | 353° |
| 2026-05-04 13:58 | 34.03751 | 36.55451 | 31737 ft | 429 kts | 354° |
| 2026-05-04 13:58 | 34.09745 | 36.56155 | 32608 ft | 432 kts | 350° |
| 2026-05-04 13:58 | 34.12695 | 36.55955 | 33007 ft | 419 kts | 339° |
| 2026-05-04 13:59 | 34.15489 | 36.55179 | 33445 ft | 407 kts | 329° |
| 2026-05-04 13:59 | 34.18064 | 36.53899 | 33845 ft | 397 kts | 320° |
| 2026-05-04 13:59 | 34.22407 | 36.50081 | 34509 ft | 378 kts | 303° |
| 2026-05-04 14:00 | 34.24100 | 36.47695 | 34830 ft | 370 kts | 296° |
| 2026-05-04 14:00 | 34.26438 | 36.42354 | 35659 ft | 353 kts | 282° |
| 2026-05-04 14:00 | 34.27085 | 36.39522 | 36035 ft | 348 kts | 275° |
| 2026-05-04 14:01 | 34.27394 | 36.36641 | 36420 ft | 344 kts | 269° |
| 2026-05-04 14:01 | 34.27489 | 36.33756 | 36782 ft | 344 kts | 268° |
| 2026-05-04 14:01 | 34.27718 | 36.27963 | 37492 ft | 345 kts | 269° |
| 2026-05-04 14:02 | 34.27822 | 36.25058 | 37817 ft | 346 kts | 268° |
| 2026-05-04 14:02 | 34.27923 | 36.22147 | 38165 ft | 347 kts | 269° |
| 2026-05-04 14:02 | 34.28028 | 36.19230 | 38522 ft | 347 kts | 269° |
| 2026-05-04 14:02 | 34.28134 | 36.16311 | 38809 ft | 348 kts | 269° |
| 2026-05-04 14:03 | 34.28238 | 36.13386 | 39055 ft | 349 kts | 269° |
| 2026-05-04 14:03 | 34.28341 | 36.10454 | 39315 ft | 349 kts | 269° |
| 2026-05-04 14:03 | 34.28444 | 36.07518 | 39563 ft | 350 kts | 269° |
| 2026-05-04 14:03 | 34.28546 | 36.04569 | 39826 ft | 351 kts | 269° |
| 2026-05-04 14:04 | 34.28754 | 35.98567 | 39924 ft | 365 kts | 269° |
| 2026-05-04 14:04 | 34.29062 | 35.92316 | 39943 ft | 380 kts | 270° |
| 2026-05-04 14:05 | 34.29347 | 35.85840 | 39944 ft | 391 kts | 270° |
| 2026-05-04 14:05 | 34.29493 | 35.82540 | 39951 ft | 395 kts | 270° |
| 2026-05-04 14:06 | 34.29794 | 35.75905 | 39949 ft | 392 kts | 270° |
| 2026-05-04 14:06 | 34.30287 | 35.69381 | 39948 ft | 391 kts | 279° |
| 2026-05-04 14:07 | 34.31996 | 35.63139 | 39948 ft | 390 kts | 284° |
| 2026-05-04 14:07 | 34.33733 | 35.56955 | 39944 ft | 387 kts | 284° |
| 2026-05-04 14:08 | 34.35468 | 35.50808 | 39939 ft | 385 kts | 284° |
| 2026-05-04 14:08 | 34.37185 | 35.44692 | 39935 ft | 383 kts | 284° |
| 2026-05-04 14:09 | 34.39747 | 35.35555 | 39930 ft | 381 kts | 283° |
| 2026-05-04 14:10 | 34.42280 | 35.26486 | 39920 ft | 380 kts | 283° |
| 2026-05-04 14:10 | 34.43969 | 35.20422 | 39920 ft | 380 kts | 283° |
| 2026-05-04 14:11 | 34.45660 | 35.14338 | 39915 ft | 381 kts | 283° |
| 2026-05-04 14:11 | 34.48194 | 35.05199 | 39911 ft | 382 kts | 283° |
| 2026-05-04 14:12 | 34.49907 | 34.99099 | 39904 ft | 382 kts | 284° |
| 2026-05-04 14:13 | 34.52479 | 34.89931 | 39899 ft | 383 kts | 284° |
| 2026-05-04 14:13 | 34.54194 | 34.83806 | 39895 ft | 384 kts | 284° |
| 2026-05-04 14:14 | 34.55905 | 34.77675 | 39897 ft | 384 kts | 284° |
| 2026-05-04 14:14 | 34.58469 | 34.68461 | 39893 ft | 385 kts | 284° |
| 2026-05-04 14:15 | 34.61886 | 34.56138 | 39890 ft | 386 kts | 283° |
| 2026-05-04 14:16 | 34.64445 | 34.46871 | 39888 ft | 386 kts | 284° |
| 2026-05-04 14:17 | 34.67002 | 34.37581 | 39882 ft | 387 kts | 284° |
| 2026-05-04 14:18 | 34.69545 | 34.28312 | 39882 ft | 388 kts | 284° |
| 2026-05-04 14:19 | 34.72948 | 34.15860 | 39878 ft | 389 kts | 284° |
| 2026-05-04 14:19 | 34.74647 | 34.09618 | 39878 ft | 389 kts | 284° |
| 2026-05-04 14:20 | 34.76336 | 34.03356 | 39873 ft | 390 kts | 283° |
| 2026-05-04 14:20 | 34.78026 | 33.97084 | 39877 ft | 391 kts | 284° |
| 2026-05-04 14:21 | 34.80566 | 33.87647 | 39878 ft | 392 kts | 284° |
| 2026-05-04 14:21 | 34.82262 | 33.81340 | 39880 ft | 393 kts | 284° |
| 2026-05-04 14:22 | 34.83959 | 33.75012 | 39882 ft | 393 kts | 284° |
| 2026-05-04 14:22 | 34.85655 | 33.68673 | 39879 ft | 394 kts | 284° |
| 2026-05-04 14:23 | 34.88299 | 33.59163 | 39861 ft | 396 kts | 285° |
| 2026-05-04 14:24 | 34.90128 | 33.52827 | 39864 ft | 397 kts | 285° |
| 2026-05-04 14:24 | 34.91987 | 33.46491 | 39874 ft | 398 kts | 286° |
| 2026-05-04 14:25 | 34.93825 | 33.40169 | 39867 ft | 399 kts | 286° |
| 2026-05-04 14:25 | 34.96611 | 33.30599 | 39887 ft | 400 kts | 286° |
| 2026-05-04 14:26 | 34.98461 | 33.24205 | 39883 ft | 400 kts | 286° |
| 2026-05-04 14:26 | 35.00313 | 33.17798 | 39893 ft | 401 kts | 286° |
| 2026-05-04 14:27 | 35.02162 | 33.11385 | 39882 ft | 401 kts | 286° |
| 2026-05-04 14:27 | 35.04010 | 33.04965 | 39883 ft | 401 kts | 286° |
| 2026-05-04 14:28 | 35.05854 | 32.98541 | 39878 ft | 401 kts | 286° |
| 2026-05-04 14:28 | 35.07383 | 32.93191 | 39877 ft | 401 kts | 285° |
| 2026-05-04 14:29 | 35.10864 | 32.80251 | 39868 ft | 401 kts | 285° |
| 2026-05-04 14:30 | 35.12682 | 32.73425 | 39870 ft | 401 kts | 285° |
| 2026-05-04 14:31 | 35.15276 | 32.63707 | 39865 ft | 401 kts | 285° |
| 2026-05-04 14:32 | 35.18724 | 32.50734 | 39862 ft | 401 kts | 286° |
| 2026-05-04 14:32 | 35.20441 | 32.44242 | 39857 ft | 401 kts | 286° |
| 2026-05-04 14:33 | 35.22157 | 32.37746 | 39860 ft | 402 kts | 286° |
| 2026-05-04 14:33 | 35.23869 | 32.31245 | 39860 ft | 402 kts | 286° |
| 2026-05-04 14:34 | 35.25579 | 32.24736 | 39856 ft | 402 kts | 286° |
| 2026-05-04 14:34 | 35.27276 | 32.18261 | 39857 ft | 402 kts | 286° |
| 2026-05-04 14:35 | 35.28981 | 32.11741 | 39856 ft | 403 kts | 286° |
| 2026-05-04 14:35 | 35.30684 | 32.05208 | 39856 ft | 403 kts | 286° |
| 2026-05-04 14:36 | 35.32405 | 31.98683 | 39856 ft | 403 kts | 286° |
| 2026-05-04 14:36 | 35.34122 | 31.92149 | 39857 ft | 402 kts | 286° |
| 2026-05-04 14:37 | 35.35830 | 31.85629 | 39861 ft | 402 kts | 286° |
| 2026-05-04 14:37 | 35.37533 | 31.79118 | 39861 ft | 401 kts | 286° |
| 2026-05-04 14:38 | 35.39229 | 31.72611 | 39862 ft | 401 kts | 286° |
| 2026-05-04 14:38 | 35.40922 | 31.66105 | 39860 ft | 401 kts | 286° |
| 2026-05-04 14:39 | 35.42611 | 31.59594 | 39859 ft | 401 kts | 286° |
| 2026-05-04 14:39 | 35.44298 | 31.53075 | 39860 ft | 401 kts | 286° |
| 2026-05-04 14:40 | 35.46820 | 31.43303 | 39862 ft | 401 kts | 286° |
| 2026-05-04 14:40 | 35.48497 | 31.36782 | 39863 ft | 401 kts | 286° |
| 2026-05-04 14:41 | 35.50161 | 31.30298 | 39859 ft | 401 kts | 286° |
| 2026-05-04 14:42 | 35.53502 | 31.17226 | 39858 ft | 401 kts | 286° |
| 2026-05-04 14:42 | 35.55169 | 31.10682 | 39859 ft | 402 kts | 286° |
| 2026-05-04 14:43 | 35.56832 | 31.04134 | 39857 ft | 402 kts | 286° |
| 2026-05-04 14:43 | 35.58493 | 30.97577 | 39861 ft | 402 kts | 286° |
| 2026-05-04 14:44 | 35.60152 | 30.91014 | 39860 ft | 402 kts | 286° |
| 2026-05-04 14:44 | 35.61809 | 30.84441 | 39861 ft | 403 kts | 286° |
| 2026-05-04 14:45 | 35.63511 | 30.77877 | 39862 ft | 403 kts | 287° |
| 2026-05-04 14:45 | 35.65207 | 30.71306 | 39857 ft | 403 kts | 287° |
| 2026-05-04 14:46 | 35.66900 | 30.64726 | 39857 ft | 404 kts | 287° |
| 2026-05-04 14:46 | 35.68592 | 30.58139 | 39855 ft | 404 kts | 287° |
| 2026-05-04 14:47 | 35.70280 | 30.51549 | 39856 ft | 404 kts | 287° |
| 2026-05-04 14:47 | 35.71966 | 30.44947 | 39855 ft | 404 kts | 287° |
| 2026-05-04 14:48 | 35.73650 | 30.38339 | 39851 ft | 405 kts | 287° |
| 2026-05-04 14:48 | 35.75332 | 30.31723 | 39851 ft | 405 kts | 287° |
| 2026-05-04 14:49 | 35.76999 | 30.25146 | 39851 ft | 405 kts | 287° |
| 2026-05-04 14:49 | 35.78676 | 30.18516 | 39850 ft | 406 kts | 287° |
| 2026-05-04 14:50 | 35.80349 | 30.11882 | 39849 ft | 406 kts | 287° |
| 2026-05-04 14:50 | 35.82019 | 30.05242 | 39853 ft | 406 kts | 287° |
| 2026-05-04 14:51 | 35.83717 | 29.98609 | 39852 ft | 406 kts | 288° |
| 2026-05-04 14:51 | 35.85509 | 29.92014 | 39853 ft | 406 kts | 288° |
| 2026-05-04 14:52 | 35.87297 | 29.85416 | 39856 ft | 405 kts | 288° |
| 2026-05-04 14:52 | 35.89085 | 29.78822 | 39858 ft | 405 kts | 288° |
| 2026-05-04 14:53 | 35.90863 | 29.72230 | 39859 ft | 405 kts | 288° |
| 2026-05-04 14:53 | 35.92639 | 29.65645 | 39864 ft | 405 kts | 288° |
| 2026-05-04 14:54 | 35.94405 | 29.59055 | 39868 ft | 404 kts | 287° |
| 2026-05-04 14:54 | 35.96174 | 29.52465 | 39870 ft | 404 kts | 288° |
| 2026-05-04 14:55 | 35.97958 | 29.45883 | 39875 ft | 404 kts | 288° |
| 2026-05-04 14:55 | 35.99721 | 29.39288 | 39877 ft | 405 kts | 288° |
| 2026-05-04 14:56 | 36.01495 | 29.32684 | 39879 ft | 405 kts | 288° |
| 2026-05-04 14:56 | 36.03260 | 29.26070 | 39883 ft | 406 kts | 288° |
| 2026-05-04 14:57 | 36.05028 | 29.19444 | 39893 ft | 406 kts | 288° |
| 2026-05-04 14:57 | 36.06792 | 29.12811 | 39894 ft | 406 kts | 288° |
| 2026-05-04 14:58 | 36.08553 | 29.06170 | 39898 ft | 407 kts | 288° |
| 2026-05-04 14:58 | 36.10017 | 29.00641 | 39901 ft | 407 kts | 288° |
| 2026-05-04 14:59 | 36.12072 | 28.92853 | 39913 ft | 408 kts | 288° |
| 2026-05-04 15:00 | 36.14412 | 28.83963 | 39921 ft | 408 kts | 288° |
| 2026-05-04 15:00 | 36.16164 | 28.77283 | 39927 ft | 408 kts | 288° |
| 2026-05-04 15:01 | 36.18788 | 28.67251 | 39938 ft | 408 kts | 288° |
| 2026-05-04 15:01 | 36.20531 | 28.60561 | 39936 ft | 408 kts | 288° |
| 2026-05-04 15:02 | 36.22272 | 28.53864 | 39944 ft | 408 kts | 288° |
| 2026-05-04 15:02 | 36.24009 | 28.47164 | 39956 ft | 409 kts | 288° |
| 2026-05-04 15:03 | 36.25737 | 28.40451 | 39968 ft | 409 kts | 288° |
| 2026-05-04 15:03 | 36.27463 | 28.33743 | 39978 ft | 409 kts | 288° |
| 2026-05-04 15:04 | 36.29186 | 28.27023 | 39982 ft | 409 kts | 288° |
| 2026-05-04 15:04 | 36.30907 | 28.20294 | 39986 ft | 410 kts | 288° |
| 2026-05-04 15:05 | 36.32625 | 28.13557 | 39987 ft | 410 kts | 288° |
| 2026-05-04 15:05 | 36.35141 | 28.07269 | 39986 ft | 409 kts | 307° |
| 2026-05-04 15:06 | 36.39160 | 28.02253 | 39995 ft | 411 kts | 316° |
| 2026-05-04 15:07 | 36.45414 | 27.95020 | 40002 ft | 412 kts | 316° |
| 2026-05-04 15:07 | 36.49612 | 27.90171 | 40006 ft | 412 kts | 316° |
| 2026-05-04 15:08 | 36.53807 | 27.85305 | 40003 ft | 413 kts | 316° |
| 2026-05-04 15:08 | 36.58006 | 27.80434 | 40008 ft | 413 kts | 316° |
| 2026-05-04 15:09 | 36.62201 | 27.75552 | 40010 ft | 413 kts | 316° |
| 2026-05-04 15:09 | 36.66399 | 27.70669 | 40013 ft | 413 kts | 316° |
| 2026-05-04 15:10 | 36.72689 | 27.63329 | 40013 ft | 413 kts | 316° |
| 2026-05-04 15:11 | 36.78980 | 27.55975 | 40011 ft | 413 kts | 316° |
| 2026-05-04 15:11 | 36.83172 | 27.51062 | 40012 ft | 413 kts | 316° |
| 2026-05-04 15:12 | 36.87364 | 27.46144 | 40021 ft | 413 kts | 316° |
| 2026-05-04 15:12 | 36.91551 | 27.41222 | 40024 ft | 413 kts | 316° |
| 2026-05-04 15:13 | 36.95709 | 27.36327 | 40031 ft | 413 kts | 316° |
| 2026-05-04 15:13 | 36.99880 | 27.31409 | 40035 ft | 413 kts | 316° |
| 2026-05-04 15:14 | 37.04078 | 27.26452 | 40034 ft | 414 kts | 316° |
| 2026-05-04 15:14 | 37.08261 | 27.21505 | 40036 ft | 414 kts | 316° |
| 2026-05-04 15:15 | 37.12444 | 27.16550 | 40035 ft | 414 kts | 316° |
| 2026-05-04 15:15 | 37.16626 | 27.11585 | 40036 ft | 414 kts | 316° |
| 2026-05-04 15:16 | 37.22894 | 27.04133 | 40037 ft | 414 kts | 316° |
| 2026-05-04 15:17 | 37.29159 | 26.96666 | 40036 ft | 414 kts | 316° |
| 2026-05-04 15:17 | 37.35413 | 26.89195 | 40042 ft | 414 kts | 316° |
| 2026-05-04 15:18 | 37.39581 | 26.84206 | 40046 ft | 414 kts | 316° |
| 2026-05-04 15:19 | 37.46121 | 26.77120 | 40051 ft | 414 kts | 319° |
| 2026-05-04 15:19 | 37.52669 | 26.70042 | 40052 ft | 413 kts | 319° |
| 2026-05-04 15:20 | 37.57030 | 26.65319 | 40054 ft | 413 kts | 319° |
| 2026-05-04 15:20 | 37.61388 | 26.60593 | 40053 ft | 413 kts | 319° |
| 2026-05-04 15:21 | 37.65746 | 26.55859 | 40051 ft | 413 kts | 319° |
| 2026-05-04 15:22 | 37.72283 | 26.48754 | 40055 ft | 413 kts | 319° |
| 2026-05-04 15:22 | 37.78820 | 26.41642 | 40062 ft | 413 kts | 319° |
| 2026-05-04 15:23 | 37.83175 | 26.36895 | 40064 ft | 413 kts | 319° |
| 2026-05-04 15:23 | 37.87531 | 26.32138 | 40066 ft | 413 kts | 319° |
| 2026-05-04 15:24 | 37.96224 | 26.22593 | 40069 ft | 414 kts | 319° |
| 2026-05-04 15:25 | 38.00572 | 26.17808 | 40071 ft | 414 kts | 319° |
| 2026-05-04 15:26 | 38.07087 | 26.10623 | 40076 ft | 414 kts | 319° |
| 2026-05-04 15:26 | 38.13600 | 26.03420 | 40075 ft | 414 kts | 319° |
| 2026-05-04 15:27 | 38.20110 | 25.96202 | 40079 ft | 414 kts | 319° |
| 2026-05-04 15:28 | 38.26695 | 25.89076 | 40077 ft | 415 kts | 322° |
| 2026-05-04 15:29 | 38.33588 | 25.82400 | 40080 ft | 415 kts | 322° |
| 2026-05-04 15:30 | 38.49616 | 25.66753 | 40080 ft | 416 kts | 322° |
| 2026-05-04 15:31 | 38.56530 | 25.59978 | 40083 ft | 416 kts | 322° |
| 2026-05-04 15:32 | 38.67982 | 25.48716 | 40082 ft | 417 kts | 322° |
| 2026-05-04 15:34 | 38.79472 | 25.37371 | 40083 ft | 417 kts | 322° |
| 2026-05-04 15:34 | 38.86369 | 25.30541 | 40081 ft | 418 kts | 322° |
| 2026-05-04 15:35 | 38.93262 | 25.23689 | 40082 ft | 418 kts | 322° |
| 2026-05-04 15:36 | 39.00161 | 25.16820 | 40082 ft | 418 kts | 322° |
| 2026-05-04 15:36 | 39.04760 | 25.12231 | 40078 ft | 418 kts | 322° |
| 2026-05-04 15:37 | 39.09357 | 25.07637 | 40078 ft | 419 kts | 322° |
| 2026-05-04 15:37 | 39.13926 | 25.03061 | 40079 ft | 419 kts | 322° |
| 2026-05-04 15:38 | 39.18524 | 24.98450 | 40079 ft | 419 kts | 322° |
| 2026-05-04 15:38 | 39.23124 | 24.93829 | 40075 ft | 419 kts | 322° |
| 2026-05-04 15:39 | 39.27726 | 24.89198 | 40075 ft | 419 kts | 322° |
| 2026-05-04 15:40 | 39.34622 | 24.82242 | 40071 ft | 419 kts | 322° |
| 2026-05-04 15:40 | 39.39217 | 24.77598 | 40076 ft | 419 kts | 322° |
| 2026-05-04 15:41 | 39.43814 | 24.72944 | 40071 ft | 420 kts | 322° |
| 2026-05-04 15:41 | 39.48412 | 24.68280 | 40075 ft | 420 kts | 322° |
| 2026-05-04 15:42 | 39.53454 | 24.64515 | 40071 ft | 420 kts | 334° |
| 2026-05-04 15:42 | 39.58712 | 24.61216 | 40079 ft | 420 kts | 333° |
| 2026-05-04 15:43 | 39.63979 | 24.57907 | 40084 ft | 420 kts | 334° |
| 2026-05-04 15:43 | 39.69245 | 24.54593 | 40081 ft | 421 kts | 334° |
| 2026-05-04 15:44 | 39.74512 | 24.51272 | 40071 ft | 421 kts | 334° |
| 2026-05-04 15:44 | 39.79782 | 24.47944 | 40070 ft | 421 kts | 334° |
| 2026-05-04 15:45 | 39.85059 | 24.44605 | 40070 ft | 422 kts | 334° |
| 2026-05-04 15:45 | 39.90333 | 24.41263 | 40069 ft | 422 kts | 334° |
| 2026-05-04 15:46 | 39.94721 | 24.38478 | 40069 ft | 422 kts | 334° |
| 2026-05-04 15:46 | 40.00002 | 24.35120 | 40061 ft | 422 kts | 334° |
| 2026-05-04 15:47 | 40.05276 | 24.31761 | 40058 ft | 422 kts | 334° |
| 2026-05-04 15:47 | 40.10555 | 24.28394 | 40052 ft | 422 kts | 334° |
| 2026-05-04 15:48 | 40.15834 | 24.25021 | 40050 ft | 422 kts | 334° |
| 2026-05-04 15:48 | 40.23757 | 24.19946 | 40047 ft | 423 kts | 334° |
| 2026-05-04 15:49 | 40.29043 | 24.16553 | 40046 ft | 423 kts | 334° |
| 2026-05-04 15:49 | 40.34294 | 24.13177 | 40041 ft | 423 kts | 334° |
| 2026-05-04 15:50 | 40.39583 | 24.09770 | 40051 ft | 423 kts | 334° |
| 2026-05-04 15:50 | 40.44874 | 24.06356 | 40048 ft | 423 kts | 334° |
| 2026-05-04 15:51 | 40.50155 | 24.02943 | 40038 ft | 423 kts | 334° |
| 2026-05-04 15:51 | 40.55439 | 23.99521 | 40042 ft | 423 kts | 334° |
| 2026-05-04 15:52 | 40.60860 | 23.96535 | 40038 ft | 423 kts | 346° |
| 2026-05-04 15:52 | 40.66654 | 23.95128 | 40038 ft | 424 kts | 349° |
| 2026-05-04 15:53 | 40.72453 | 23.93738 | 40040 ft | 424 kts | 349° |
| 2026-05-04 15:53 | 40.78262 | 23.92361 | 40039 ft | 424 kts | 349° |
| 2026-05-04 15:54 | 40.84033 | 23.90982 | 40043 ft | 424 kts | 349° |
| 2026-05-04 15:54 | 40.89848 | 23.89593 | 40041 ft | 425 kts | 349° |
| 2026-05-04 15:55 | 40.95668 | 23.88199 | 40036 ft | 425 kts | 349° |
| 2026-05-04 15:55 | 41.01489 | 23.86803 | 40038 ft | 425 kts | 349° |
| 2026-05-04 15:56 | 41.07311 | 23.85404 | 40044 ft | 425 kts | 349° |
| 2026-05-04 15:56 | 41.13129 | 23.84004 | 40047 ft | 425 kts | 349° |
| 2026-05-04 15:57 | 41.18953 | 23.82600 | 40047 ft | 425 kts | 349° |
| 2026-05-04 15:57 | 41.24781 | 23.81192 | 40052 ft | 425 kts | 349° |
| 2026-05-04 15:58 | 41.30611 | 23.79782 | 40054 ft | 426 kts | 349° |
| 2026-05-04 15:58 | 41.36446 | 23.78374 | 40056 ft | 426 kts | 349° |
| 2026-05-04 15:59 | 41.42294 | 23.77149 | 40058 ft | 426 kts | 353° |
| 2026-05-04 15:59 | 41.48198 | 23.76347 | 40067 ft | 427 kts | 353° |
| 2026-05-04 16:00 | 41.54100 | 23.75491 | 40074 ft | 426 kts | 353° |
| 2026-05-04 16:00 | 41.60002 | 23.74660 | 40073 ft | 427 kts | 353° |
| 2026-05-04 16:01 | 41.65908 | 23.73816 | 40081 ft | 427 kts | 353° |
| 2026-05-04 16:01 | 41.71817 | 23.72974 | 40077 ft | 427 kts | 353° |
| 2026-05-04 16:02 | 41.77689 | 23.72133 | 40085 ft | 427 kts | 353° |
| 2026-05-04 16:03 | 41.86563 | 23.70861 | 40096 ft | 428 kts | 353° |
| 2026-05-04 16:03 | 41.92480 | 23.70012 | 40103 ft | 428 kts | 353° |
| 2026-05-04 16:04 | 41.98397 | 23.69160 | 40105 ft | 427 kts | 353° |
| 2026-05-04 16:04 | 42.07262 | 23.67882 | 40111 ft | 427 kts | 353° |
| 2026-05-04 16:05 | 42.13165 | 23.67026 | 40108 ft | 427 kts | 354° |
| 2026-05-04 16:06 | 42.22043 | 23.65741 | 40109 ft | 429 kts | 354° |
| 2026-05-04 16:07 | 42.33862 | 23.63283 | 40113 ft | 431 kts | 346° |
| 2026-05-04 16:08 | 42.45486 | 23.59277 | 40106 ft | 431 kts | 346° |
| 2026-05-04 16:09 | 42.60021 | 23.54235 | 40105 ft | 431 kts | 346° |
| 2026-05-04 16:10 | 42.71652 | 23.50183 | 40115 ft | 432 kts | 346° |
| 2026-05-04 16:11 | 42.83292 | 23.46113 | 40107 ft | 431 kts | 346° |
| 2026-05-04 16:12 | 43.00740 | 23.39981 | 40104 ft | 432 kts | 346° |
| 2026-05-04 16:13 | 43.12383 | 23.35869 | 40101 ft | 432 kts | 346° |
| 2026-05-04 16:14 | 43.24114 | 23.32336 | 40090 ft | 432 kts | 355° |
| 2026-05-04 16:16 | 43.39010 | 23.30513 | 40082 ft | 429 kts | 355° |
| 2026-05-04 16:17 | 43.53844 | 23.28656 | 40065 ft | 428 kts | 355° |
| 2026-05-04 16:18 | 43.65684 | 23.27195 | 40410 ft | 423 kts | 355° |
| 2026-05-04 16:19 | 43.74351 | 23.24889 | 41322 ft | 421 kts | 348° |
| 2026-05-04 16:19 | 43.80106 | 23.23488 | 42020 ft | 419 kts | 350° |
| 2026-05-04 16:20 | 43.82963 | 23.22740 | 42370 ft | 417 kts | 349° |
| 2026-05-04 16:21 | 44.02778 | 23.17450 | 43051 ft | 441 kts | 349° |
| 2026-05-04 16:25 | 44.42399 | 23.06848 | 43041 ft | 448 kts | 349° |
| 2026-05-04 16:27 | 44.72595 | 22.98668 | 43015 ft | 432 kts | 348° |
| 2026-05-04 16:28 | 44.81449 | 22.96252 | 43016 ft | 432 kts | 348° |
| 2026-05-04 16:29 | 45.02103 | 22.90590 | 43032 ft | 432 kts | 348° |
| 2026-05-04 16:31 | 45.16881 | 22.86513 | 43051 ft | 433 kts | 348° |
| 2026-05-04 16:32 | 45.34624 | 22.81588 | 43061 ft | 433 kts | 348° |
| 2026-05-04 16:33 | 45.46420 | 22.78297 | 43072 ft | 434 kts | 348° |
| 2026-05-04 16:34 | 45.55317 | 22.75805 | 43072 ft | 435 kts | 348° |
| 2026-05-04 16:35 | 45.73139 | 22.70790 | 43063 ft | 435 kts | 348° |
| 2026-05-04 16:36 | 45.82060 | 22.68267 | 43058 ft | 436 kts | 348° |
| 2026-05-04 16:37 | 45.90984 | 22.65735 | 43067 ft | 436 kts | 348° |
| 2026-05-04 16:38 | 46.02894 | 22.62343 | 43068 ft | 436 kts | 348° |
| 2026-05-04 16:39 | 46.17774 | 22.58085 | 43075 ft | 436 kts | 348° |
| 2026-05-04 16:40 | 46.29668 | 22.54664 | 43081 ft | 436 kts | 348° |
| 2026-05-04 16:41 | 46.44478 | 22.50381 | 43079 ft | 435 kts | 348° |
| 2026-05-04 16:43 | 46.59320 | 22.46067 | 43090 ft | 435 kts | 348° |
| 2026-05-04 16:43 | 46.68222 | 22.43468 | 43086 ft | 435 kts | 348° |
| 2026-05-04 16:45 | 46.86043 | 22.38238 | 43079 ft | 436 kts | 348° |
| 2026-05-04 16:46 | 46.99897 | 22.34148 | 43069 ft | 436 kts | 348° |
| 2026-05-04 16:47 | 47.11788 | 22.30620 | 43073 ft | 436 kts | 348° |
| 2026-05-04 16:48 | 47.23679 | 22.27076 | 43071 ft | 436 kts | 348° |
| 2026-05-04 16:49 | 47.35576 | 22.23514 | 43071 ft | 436 kts | 348° |
| 2026-05-04 16:50 | 47.47470 | 22.19936 | 43069 ft | 436 kts | 348° |
| 2026-05-04 16:51 | 47.56395 | 22.17240 | 43067 ft | 436 kts | 348° |
| 2026-05-04 16:52 | 47.68294 | 22.13632 | 43059 ft | 436 kts | 348° |
| 2026-05-04 16:53 | 47.77184 | 22.10925 | 43062 ft | 437 kts | 348° |
| 2026-05-04 16:54 | 47.89093 | 22.07284 | 43052 ft | 437 kts | 348° |
| 2026-05-04 16:55 | 48.06962 | 22.01789 | 43049 ft | 437 kts | 347° |
| 2026-05-04 16:56 | 48.21870 | 21.97174 | 43043 ft | 437 kts | 347° |
| 2026-05-04 16:57 | 48.30808 | 21.94395 | 43040 ft | 437 kts | 347° |
| 2026-05-04 16:58 | 48.39860 | 21.93565 | 43053 ft | 440 kts | 8° |
| 2026-05-04 16:58 | 48.42882 | 21.94282 | 43058 ft | 440 kts | 7° |
| 2026-05-04 17:00 | 48.61038 | 21.98495 | 43060 ft | 440 kts | 7° |
| 2026-05-04 17:01 | 48.76181 | 22.02040 | 43057 ft | 441 kts | 7° |
| 2026-05-04 17:02 | 48.88294 | 22.04892 | 43052 ft | 440 kts | 7° |
| 2026-05-04 17:03 | 48.97387 | 22.07040 | 43048 ft | 441 kts | 7° |
| 2026-05-04 17:03 | 49.06444 | 22.09189 | 43048 ft | 441 kts | 7° |
| 2026-05-04 17:04 | 49.18614 | 22.12088 | 43043 ft | 441 kts | 7° |
| 2026-05-04 17:05 | 49.30714 | 22.14985 | 43037 ft | 438 kts | 9° |
| 2026-05-04 17:06 | 49.39728 | 22.17153 | 43040 ft | 437 kts | 8° |
| 2026-05-04 17:07 | 49.47706 | 22.19079 | 43032 ft | 436 kts | 8° |
| 2026-05-04 17:07 | 49.54667 | 22.20763 | 43015 ft | 436 kts | 8° |
| 2026-05-04 17:08 | 49.63652 | 22.22945 | 43006 ft | 436 kts | 8° |
| 2026-05-04 17:09 | 49.69642 | 22.24405 | 43002 ft | 436 kts | 8° |
| 2026-05-04 17:09 | 49.75631 | 22.25868 | 42998 ft | 436 kts | 8° |
| 2026-05-04 17:10 | 49.90621 | 22.29545 | 42985 ft | 436 kts | 8° |
| 2026-05-04 17:11 | 49.96618 | 22.31023 | 42978 ft | 437 kts | 8° |
| 2026-05-04 17:12 | 50.05611 | 22.33246 | 42966 ft | 434 kts | 8° |
| 2026-05-04 17:13 | 50.20348 | 22.36907 | 42965 ft | 427 kts | 8° |
| 2026-05-04 17:14 | 50.32056 | 22.39831 | 42962 ft | 425 kts | 8° |
| 2026-05-04 17:15 | 50.40813 | 22.42028 | 42962 ft | 424 kts | 8° |
| 2026-05-04 17:16 | 50.52465 | 22.44964 | 42961 ft | 424 kts | 8° |
| 2026-05-04 17:17 | 50.64101 | 22.47912 | 42958 ft | 423 kts | 8° |
| 2026-05-04 17:18 | 50.75735 | 22.50872 | 42957 ft | 423 kts | 8° |
| 2026-05-04 17:19 | 50.87375 | 22.53850 | 42953 ft | 424 kts | 8° |
| 2026-05-04 17:20 | 50.99015 | 22.56843 | 42948 ft | 424 kts | 8° |
| 2026-05-04 17:20 | 51.07750 | 22.59099 | 42939 ft | 424 kts | 8° |
| 2026-05-04 17:21 | 51.19370 | 22.62113 | 42935 ft | 424 kts | 8° |
| 2026-05-04 17:22 | 51.25205 | 22.63633 | 42940 ft | 425 kts | 8° |
| 2026-05-04 17:23 | 51.36875 | 22.66683 | 42943 ft | 425 kts | 8° |
| 2026-05-04 17:24 | 51.45636 | 22.68984 | 42938 ft | 425 kts | 8° |
| 2026-05-04 17:25 | 51.57328 | 22.72069 | 42932 ft | 427 kts | 7° |
| 2026-05-04 17:26 | 51.69075 | 22.75184 | 42930 ft | 429 kts | 7° |
| 2026-05-04 17:27 | 51.83798 | 22.79111 | 42933 ft | 431 kts | 7° |
| 2026-05-04 17:28 | 51.95639 | 22.82289 | 42937 ft | 432 kts | 7° |
| 2026-05-04 17:29 | 52.13447 | 22.87100 | 42937 ft | 433 kts | 7° |
| 2026-05-04 17:31 | 52.28308 | 22.91145 | 42928 ft | 433 kts | 7° |
| 2026-05-04 17:32 | 52.43142 | 22.95210 | 42924 ft | 434 kts | 7° |
| 2026-05-04 17:33 | 52.55074 | 22.98108 | 42921 ft | 433 kts | 6° |
| 2026-05-04 17:34 | 52.66054 | 23.00608 | 42918 ft | 434 kts | 6° |
| 2026-05-04 17:35 | 52.80957 | 23.04034 | 42921 ft | 434 kts | 5° |
| 2026-05-04 17:36 | 52.86935 | 23.05413 | 42918 ft | 434 kts | 5° |
| 2026-05-04 17:36 | 52.92920 | 23.06799 | 42924 ft | 434 kts | 5° |
| 2026-05-04 17:37 | 52.98905 | 23.08187 | 42907 ft | 434 kts | 5° |
| 2026-05-04 17:37 | 53.04891 | 23.09580 | 42910 ft | 435 kts | 5° |
| 2026-05-04 17:38 | 53.10882 | 23.10978 | 42910 ft | 435 kts | 5° |
| 2026-05-04 17:38 | 53.16871 | 23.12381 | 42912 ft | 435 kts | 5° |
| 2026-05-04 17:39 | 53.25865 | 23.14494 | 42910 ft | 435 kts | 5° |
| 2026-05-04 17:39 | 53.31860 | 23.15906 | 42909 ft | 435 kts | 5° |
| 2026-05-04 17:40 | 53.37861 | 23.17325 | 42903 ft | 435 kts | 5° |
| 2026-05-04 17:40 | 53.43859 | 23.18747 | 42908 ft | 435 kts | 5° |
| 2026-05-04 17:41 | 53.49864 | 23.20174 | 42907 ft | 435 kts | 5° |
| 2026-05-04 17:41 | 53.55867 | 23.21606 | 42901 ft | 436 kts | 5° |
| 2026-05-04 17:42 | 53.61865 | 23.23039 | 42904 ft | 436 kts | 5° |
| 2026-05-04 17:42 | 53.67835 | 23.24472 | 42906 ft | 436 kts | 5° |
| 2026-05-04 17:43 | 53.73841 | 23.25916 | 42905 ft | 436 kts | 5° |
| 2026-05-04 17:43 | 53.79843 | 23.27363 | 42902 ft | 436 kts | 5° |
| 2026-05-04 17:44 | 53.85848 | 23.28816 | 42903 ft | 436 kts | 5° |
| 2026-05-04 17:44 | 53.91861 | 23.30274 | 42902 ft | 436 kts | 5° |
| 2026-05-04 17:45 | 53.94873 | 23.31010 | 42692 ft | 441 kts | 6° |
| 2026-05-04 17:45 | 53.97886 | 23.32338 | 41942 ft | 455 kts | 19° |
| 2026-05-04 17:45 | 54.00729 | 23.34827 | 41216 ft | 466 kts | 31° |
| 2026-05-04 17:45 | 54.03237 | 23.38384 | 40510 ft | 474 kts | 44° |
| 2026-05-04 17:46 | 54.05246 | 23.42852 | 39828 ft | 479 kts | 58° |
| 2026-05-04 17:46 | 54.06632 | 23.48023 | 39174 ft | 483 kts | 71° |
| 2026-05-04 17:46 | 54.07721 | 23.53429 | 38531 ft | 484 kts | 69° |
| 2026-05-04 17:46 | 54.08934 | 23.58781 | 37743 ft | 485 kts | 68° |
| 2026-05-04 17:47 | 54.10234 | 23.64072 | 36970 ft | 486 kts | 65° |
| 2026-05-04 17:47 | 54.11688 | 23.69290 | 36220 ft | 486 kts | 63° |
| 2026-05-04 17:47 | 54.13127 | 23.74507 | 35492 ft | 487 kts | 65° |
| 2026-05-04 17:47 | 54.14468 | 23.79810 | 34785 ft | 487 kts | 66° |
| 2026-05-04 17:48 | 54.15782 | 23.85100 | 34097 ft | 477 kts | 65° |
| 2026-05-04 17:48 | 54.17112 | 23.90200 | 33345 ft | 464 kts | 64° |
| 2026-05-04 17:48 | 54.18429 | 23.95147 | 32562 ft | 453 kts | 64° |
| 2026-05-04 17:48 | 54.19689 | 24.00015 | 31801 ft | 444 kts | 65° |
| 2026-05-04 17:49 | 54.20894 | 24.04810 | 31062 ft | 436 kts | 65° |
| 2026-05-04 17:49 | 54.22099 | 24.09524 | 30341 ft | 429 kts | 64° |
| 2026-05-04 17:49 | 54.23232 | 24.13871 | 29625 ft | 424 kts | 64° |
| 2026-05-04 17:49 | 54.24412 | 24.18456 | 28810 ft | 419 kts | 65° |
| 2026-05-04 17:50 | 54.25598 | 24.22976 | 28012 ft | 413 kts | 60° |
| 2026-05-04 17:50 | 54.27154 | 24.27046 | 27228 ft | 406 kts | 49° |
| 2026-05-04 17:50 | 54.29039 | 24.30478 | 26485 ft | 398 kts | 38° |
| 2026-05-04 17:50 | 54.31232 | 24.33283 | 25751 ft | 390 kts | 28° |
| 2026-05-04 17:51 | 54.33622 | 24.35358 | 25030 ft | 381 kts | 18° |
| 2026-05-04 17:51 | 54.36121 | 24.36690 | 24343 ft | 373 kts | 8° |
| 2026-05-04 17:51 | 54.38640 | 24.37656 | 23670 ft | 369 kts | 8° |
| 2026-05-04 17:51 | 54.41136 | 24.38647 | 22922 ft | 367 kts | 8° |
| 2026-05-04 17:52 | 54.43610 | 24.39636 | 22142 ft | 364 kts | 8° |
| 2026-05-04 17:52 | 54.46067 | 24.40609 | 21396 ft | 361 kts | 8° |
| 2026-05-04 17:52 | 54.48511 | 24.41573 | 20665 ft | 359 kts | 8° |
| 2026-05-04 17:52 | 54.50937 | 24.42536 | 19948 ft | 357 kts | 8° |
| 2026-05-04 17:53 | 54.53353 | 24.43504 | 19246 ft | 355 kts | 8° |
| 2026-05-04 17:53 | 54.55747 | 24.44497 | 18562 ft | 355 kts | 11° |
| 2026-05-04 17:53 | 54.58029 | 24.46210 | 17839 ft | 361 kts | 25° |
| 2026-05-04 17:53 | 54.60062 | 24.48774 | 17064 ft | 365 kts | 39° |
| 2026-05-04 17:54 | 54.61740 | 24.52064 | 16317 ft | 367 kts | 50° |
| 2026-05-04 17:54 | 54.63261 | 24.55563 | 15790 ft | 360 kts | 50° |
| 2026-05-04 17:54 | 54.64752 | 24.58975 | 15321 ft | 352 kts | 50° |
| 2026-05-04 17:54 | 54.66225 | 24.62319 | 14854 ft | 347 kts | 49° |
| 2026-05-04 17:55 | 54.67673 | 24.65617 | 14393 ft | 343 kts | 50° |
| 2026-05-04 17:55 | 54.69104 | 24.68891 | 13942 ft | 340 kts | 50° |
| 2026-05-04 17:55 | 54.70520 | 24.72137 | 13468 ft | 337 kts | 50° |
| 2026-05-04 17:55 | 54.71927 | 24.75360 | 12966 ft | 334 kts | 50° |
| 2026-05-04 17:56 | 54.73288 | 24.78484 | 12467 ft | 317 kts | 50° |
| 2026-05-04 17:56 | 54.74585 | 24.81467 | 11976 ft | 304 kts | 49° |
| 2026-05-04 17:56 | 54.75833 | 24.84341 | 11491 ft | 294 kts | 49° |
| 2026-05-04 17:56 | 54.77045 | 24.87129 | 11008 ft | 286 kts | 49° |
| 2026-05-04 17:57 | 54.78231 | 24.89854 | 10529 ft | 280 kts | 49° |
| 2026-05-04 17:57 | 54.79389 | 24.92529 | 10070 ft | 275 kts | 49° |
| 2026-05-04 17:57 | 54.80529 | 24.95162 | 9585 ft | 271 kts | 49° |
| 2026-05-04 17:57 | 54.81643 | 24.97723 | 9084 ft | 268 kts | 49° |
| 2026-05-04 17:58 | 54.82749 | 25.00305 | 8592 ft | 265 kts | 49° |
| 2026-05-04 17:58 | 54.83867 | 25.02825 | 8106 ft | 263 kts | 49° |
| 2026-05-04 17:58 | 54.84922 | 25.05406 | 7614 ft | 263 kts | 61° |
| 2026-05-04 17:58 | 54.85312 | 25.08484 | 7119 ft | 263 kts | 93° |
| 2026-05-04 17:59 | 54.85011 | 25.11571 | 6651 ft | 258 kts | 106° |
| 2026-05-04 17:59 | 54.84712 | 25.14637 | 6188 ft | 258 kts | 97° |
| 2026-05-04 17:59 | 54.84775 | 25.20845 | 5235 ft | 256 kts | 90° |
| 2026-05-04 18:00 | 54.84751 | 25.23895 | 4968 ft | 247 kts | 97° |
| 2026-05-04 18:00 | 54.84330 | 25.26747 | 4849 ft | 245 kts | 115° |
| 2026-05-04 18:00 | 54.83659 | 25.29526 | 4579 ft | 253 kts | 116° |
| 2026-05-04 18:00 | 54.82976 | 25.32345 | 4297 ft | 254 kts | 120° |
| 2026-05-04 18:01 | 54.81950 | 25.34778 | 4017 ft | 248 kts | 140° |
| 2026-05-04 18:01 | 54.80620 | 25.36526 | 3743 ft | 231 kts | 157° |
| 2026-05-04 18:01 | 54.79170 | 25.37506 | 3461 ft | 219 kts | 172° |
| 2026-05-04 18:02 | 54.76185 | 25.37384 | 2976 ft | 204 kts | 202° |
| 2026-05-04 18:02 | 54.74934 | 25.36598 | 2840 ft | 185 kts | 205° |
| 2026-05-04 18:02 | 54.73750 | 25.35760 | 2614 ft | 182 kts | 207° |
| 2026-05-04 18:02 | 54.72584 | 25.34952 | 2383 ft | 177 kts | 205° |
| 2026-05-04 18:03 | 54.71485 | 25.34189 | 2150 ft | 160 kts | 206° |
| 2026-05-04 18:03 | 54.70515 | 25.33512 | 1944 ft | 140 kts | 206° |
| 2026-05-04 18:03 | 54.69645 | 25.32907 | 1755 ft | 138 kts | 206° |
| 2026-05-04 18:03 | 54.68755 | 25.32288 | 1589 ft | 138 kts | 207° |
| 2026-05-04 18:04 | 54.67865 | 25.31668 | 1405 ft | 139 kts | 207° |
| 2026-05-04 18:04 | 54.66970 | 25.31050 | 1230 ft | 139 kts | 206° |
| 2026-05-04 18:04 | 54.65177 | 25.29795 | 857 ft | 145 kts | 204° |
| 2026-05-04 18:05 | 54.64248 | 25.29154 | 662 ft | 137 kts | 204° |
| 2026-05-04 18:05 | 54.63477 | 25.28619 | 629 ft | 104 kts | 201° |
| 2026-05-04 18:05 | 54.63041 | 25.28315 | 616 ft | 35 kts | 202° |
| 2026-05-04 18:05 | 54.62966 | 25.28164 | 618 ft | 16 kts | 291° |
| 2026-05-04 18:06 | 54.63110 | 25.28054 | 616 ft | 16 kts | 23° |
| 2026-05-04 18:06 | 54.63218 | 25.28127 | 619 ft | 18 kts | 21° |
| 2026-05-04 18:06 | 54.63340 | 25.28212 | 622 ft | 18 kts | 21° |
| 2026-05-04 18:07 | 54.63386 | 25.28241 | 623 ft | 14 kts | 20° |
| 2026-05-04 18:07 | 54.63448 | 25.28218 | 628 ft | 7 kts | 349° |
| 2026-05-04 18:07 | 54.63478 | 25.28202 | 628 ft | 0 kts | 285° |